New Edinburg, AR (71660)

5:48 PM CST on February 05, 2016 (GMT -0600)
Staves | | Change Station
CLOSE
Current Station
Personal Weather Station
Location: Rison, AR
Elevation: 272 ft
Nearby Weather Stations

Elev 272 ft 34.06 °N, 92.28 °W | Updated 4 minutes ago

Clear
Clear
48.2 °F
Feels Like 48 °F
N
0.0
Wind Variable Wind from NE

Today
High -- | Low -- °F
--% Chance of Precip.
Yesterday
High -- | Low -- °F
Precip. -- in
Pressure 30.38 in
Visibility 10.0 miles
Clouds Clear
Windchill 48 °F
Dew Point 26 °F
Humidity 42%
Rainfall 0.00 in
Snow Depth Not available.
7:02 AM 5:43 PM
Waning Crescent, 9% visible
METAR KLLQ 052253Z AUTO 13007KT 10SM CLR 11/M07 A3038 RMK AO2 SLP288 T01111072
Pressure 30.38 in
Visibility 10.0 miles
Clouds Clear
Windchill 48 °F
Dew Point 26 °F
Humidity 42%
Rainfall 0.00 in
Snow Depth Not available.
7:02 AM 5:43 PM
Waning Crescent, 9% visible
METAR KLLQ 052253Z AUTO 13007KT 10SM CLR 11/M07 A3038 RMK AO2 SLP288 T01111072

10-Day Weather Forecast

Almanac

Astronomy

Feb. 05, 2016 Rise Set
Actual Time
Civil Twilight
Nautical Twilight
Astronomical Twilight
Moon
Length of Visible Light
Length of Day
Tomorrow will be .
, % of the Moon is Illuminated

Today's Extremes

State Highs State Lows

Community

WunderPhotos

Upload Photos

1,890,880 photos uploaded!

WunderBlog® & News

Nearby

Air Quality

  Air Quality AQ Index Pollutant
Not available.

Snow Depth

Station Depth Elevation

Earthquake Activity

City Distance Mag. Time & Date
Minimum magnitude displayed is 2.5.

Coastal Water Temperatures

Place Temperature

Stations

Nearby Weather Stations

Station Location Temp. Windchill Dew Point Humidity Wind Precip. Elev Updated Type
                   

Watches & Warnings

There are currently no watches in effect.